createdAt,value
2022-08-17T00:01:44.934Z,2.90
2022-08-17T00:04:19.911Z,2.40
2022-08-17T00:06:48.636Z,2.70
2022-08-17T00:09:18.792Z,2.60
2022-08-17T00:12:41.040Z,2.60
2022-08-17T00:14:33.779Z,2.97
2022-08-17T00:17:00.685Z,2.57
2022-08-17T00:19:27.522Z,2.63
2022-08-17T00:22:30.964Z,2.70
2022-08-17T00:24:44.852Z,3.00
2022-08-17T00:27:12.744Z,2.67
2022-08-17T00:29:39.502Z,2.70
2022-08-17T00:33:13.722Z,2.67
2022-08-17T00:34:54.614Z,3.00
2022-08-17T00:37:21.887Z,2.63
2022-08-17T00:39:49.147Z,2.70
2022-08-17T00:42:17.045Z,2.70
2022-08-17T00:44:45.220Z,2.27
2022-08-17T00:47:12.008Z,2.80
2022-08-17T00:49:38.816Z,2.40
2022-08-17T00:52:11.872Z,2.80
2022-08-17T00:54:42.949Z,2.60
2022-08-17T00:57:22.573Z,2.70
2022-08-17T01:00:02.929Z,2.50
2022-08-17T01:02:40.352Z,2.60
2022-08-17T01:05:15.182Z,2.63
2022-08-17T01:07:42.408Z,2.63
2022-08-17T01:10:58.125Z,2.43
2022-08-17T01:12:56.826Z,2.60
2022-08-17T01:15:23.644Z,2.50
2022-08-17T01:17:50.429Z,2.60
2022-08-17T01:20:17.546Z,2.57
2022-08-17T01:22:44.343Z,2.70
2022-08-17T01:25:11.130Z,2.97
2022-08-17T01:27:38.335Z,2.50
2022-08-17T01:30:56.696Z,2.57
2022-08-17T01:32:54.444Z,2.93
2022-08-17T01:35:21.195Z,2.67
2022-08-17T01:37:48.039Z,2.50
2022-08-17T01:40:31.467Z,2.60
2022-08-17T01:43:32.965Z,2.83
2022-08-17T01:46:03.509Z,2.50
2022-08-17T01:48:32.571Z,2.37
2022-08-17T01:50:59.413Z,2.33
2022-08-17T01:53:33.762Z,2.50
2022-08-17T01:56:13.602Z,2.80
2022-08-17T01:58:41.099Z,2.80
2022-08-17T02:01:08.159Z,2.47
2022-08-17T02:03:35.586Z,2.53
2022-08-17T02:06:02.543Z,2.67
2022-08-17T02:08:39.087Z,2.70
2022-08-17T02:11:23.012Z,2.20
2022-08-17T02:13:55.117Z,2.53
2022-08-17T02:16:37.541Z,2.50
2022-08-17T02:19:10.448Z,2.37
2022-08-17T02:21:38.752Z,2.40
2022-08-17T02:24:12.971Z,2.30
2022-08-17T02:26:41.375Z,2.77
2022-08-17T02:29:08.148Z,2.57
2022-08-17T02:31:35.748Z,2.80
2022-08-17T02:34:04.530Z,2.50
2022-08-17T02:36:33.163Z,2.53
2022-08-17T02:39:01.560Z,2.53
2022-08-17T02:41:28.367Z,2.30
2022-08-17T02:43:55.197Z,2.63
2022-08-17T02:46:22.608Z,2.40
2022-08-17T02:48:49.417Z,2.40
2022-08-17T02:51:16.407Z,2.57
2022-08-17T02:53:43.533Z,2.73
2022-08-17T02:56:10.340Z,2.73
2022-08-17T02:58:37.158Z,2.27
2022-08-17T03:01:05.415Z,2.40
2022-08-17T03:03:32.205Z,2.47
2022-08-17T03:05:58.983Z,2.43
2022-08-17T03:08:26.105Z,2.73
2022-08-17T03:10:52.898Z,2.50
2022-08-17T03:13:20.149Z,2.70
2022-08-17T03:15:47.196Z,2.57
2022-08-17T03:18:24.108Z,2.60
2022-08-17T03:20:54.043Z,2.30
2022-08-17T03:23:24.023Z,2.70
2022-08-17T03:25:53.128Z,2.63
2022-08-17T03:28:20.990Z,2.87
2022-08-17T03:30:47.776Z,2.70
2022-08-17T03:33:14.780Z,2.80
2022-08-17T03:35:41.824Z,2.73
2022-08-17T03:38:10.209Z,2.90
2022-08-17T03:40:58.108Z,2.97
2022-08-17T03:43:24.607Z,3.00
2022-08-17T03:46:23.982Z,2.63
2022-08-17T03:49:15.180Z,2.83
2022-08-17T03:52:02.097Z,3.13
2022-08-17T03:54:47.238Z,3.13
2022-08-17T03:57:14.076Z,2.83
2022-08-17T03:59:41.157Z,3.27
2022-08-17T04:02:24.332Z,3.30
2022-08-17T04:04:52.686Z,2.70
2022-08-17T04:07:20.835Z,3.37
2022-08-17T04:09:48.079Z,3.10
2022-08-17T04:12:19.156Z,3.13
2022-08-17T04:14:52.677Z,3.63
2022-08-17T04:17:23.476Z,3.60
2022-08-17T04:19:50.275Z,3.43
2022-08-17T04:22:32.136Z,3.17
2022-08-17T04:25:09.206Z,3.57
2022-08-17T04:27:36.217Z,3.33
2022-08-17T04:30:03.055Z,3.30
2022-08-17T04:32:59.462Z,3.57
2022-08-17T04:35:21.447Z,3.47
2022-08-17T04:37:48.245Z,3.30
2022-08-17T04:40:35.573Z,3.47
2022-08-17T04:43:07.495Z,3.17
2022-08-17T04:45:34.663Z,3.47
2022-08-17T04:48:01.425Z,3.07
2022-08-17T04:50:28.280Z,3.37
2022-08-17T04:52:55.436Z,3.20
2022-08-17T04:55:23.107Z,3.13
2022-08-17T04:57:49.891Z,3.03
2022-08-17T05:00:16.789Z,2.93
2022-08-17T05:02:51.110Z,3.50
2022-08-17T05:05:27.258Z,3.20
2022-08-17T05:07:55.497Z,3.07
2022-08-17T05:10:23.399Z,3.07
2022-08-17T05:13:00.404Z,3.40
2022-08-17T05:15:28.040Z,3.40
2022-08-17T05:17:55.898Z,3.37
2022-08-17T05:20:22.918Z,3.10
2022-08-17T05:22:52.055Z,2.93
2022-08-17T05:25:27.054Z,2.80
2022-08-17T05:27:54.242Z,3.10
2022-08-17T05:30:22.644Z,3.50
2022-08-17T05:33:13.472Z,2.87
2022-08-17T05:35:44.094Z,3.03
2022-08-17T05:38:10.862Z,3.30
2022-08-17T05:40:38.374Z,3.07
2022-08-17T05:43:13.019Z,3.53
2022-08-17T05:45:55.104Z,3.37
2022-08-17T05:48:39.125Z,3.50
2022-08-17T05:51:36.481Z,3.00
2022-08-17T05:54:20.775Z,3.27
2022-08-17T05:57:10.095Z,2.97
2022-08-17T05:59:59.317Z,3.80
2022-08-17T06:02:47.838Z,3.50
2022-08-17T06:05:23.827Z,3.07
2022-08-17T06:08:17.709Z,3.43
2022-08-17T06:10:54.573Z,3.60
2022-08-17T06:14:02.424Z,3.20
2022-08-17T06:16:37.685Z,3.40
2022-08-17T06:19:14.195Z,3.80
2022-08-17T06:21:44.215Z,3.63
2022-08-17T06:24:35.375Z,3.37
2022-08-17T06:27:24.553Z,3.30
2022-08-17T06:30:10.783Z,3.60
2022-08-17T06:32:43.713Z,3.23
2022-08-17T06:35:17.898Z,3.27
2022-08-17T06:37:56.772Z,3.80
2022-08-17T06:40:50.028Z,3.40
2022-08-17T06:43:47.939Z,3.47
2022-08-17T06:46:39.411Z,3.43
2022-08-17T06:49:11.977Z,3.23
2022-08-17T06:51:46.361Z,3.40
2022-08-17T06:54:47.314Z,3.17
2022-08-17T06:57:45.287Z,3.50
2022-08-17T07:00:13.884Z,3.70
2022-08-17T07:03:12.709Z,3.50
2022-08-17T07:05:43.776Z,3.33
2022-08-17T07:08:19.267Z,3.10
2022-08-17T07:11:30.583Z,3.53
2022-08-17T07:14:19.719Z,2.87
2022-08-17T07:16:50.811Z,3.10
2022-08-17T07:19:20.278Z,3.63
2022-08-17T07:22:14.349Z,2.90
2022-08-17T07:25:00.277Z,3.17
2022-08-17T07:27:28.005Z,3.10
2022-08-17T07:30:10.263Z,3.37
2022-08-17T07:32:42.302Z,3.07
2022-08-17T07:35:31.257Z,3.50
2022-08-17T07:38:37.080Z,3.60
2022-08-17T07:41:06.203Z,3.00
2022-08-17T07:43:44.917Z,2.93
2022-08-17T07:46:30.896Z,2.70
2022-08-17T07:49:20.129Z,2.60
2022-08-17T07:51:46.930Z,2.70
2022-08-17T07:54:22.436Z,2.57
2022-08-17T07:57:06.024Z,2.50
2022-08-17T07:59:34.353Z,2.40
2022-08-17T08:02:16.330Z,2.70
2022-08-17T08:05:00.608Z,2.90
2022-08-17T08:08:01.454Z,2.80
2022-08-17T08:10:45.028Z,2.93
2022-08-17T08:13:24.427Z,3.13
2022-08-17T08:15:54.733Z,2.73
2022-08-17T08:18:38.678Z,3.13
2022-08-17T08:21:46.520Z,2.77
2022-08-17T08:24:38.815Z,3.30
2022-08-17T08:27:21.636Z,3.13
2022-08-17T08:30:12.146Z,3.20
2022-08-17T08:33:05.236Z,3.53
2022-08-17T08:35:40.468Z,3.70
2022-08-17T08:38:18.592Z,3.73
2022-08-17T08:41:06.328Z,3.00
2022-08-17T08:43:52.817Z,3.10
2022-08-17T08:46:31.397Z,2.93
2022-08-17T08:49:13.050Z,2.83
2022-08-17T08:51:52.572Z,2.73
2022-08-17T08:54:56.262Z,2.63
2022-08-17T08:57:33.401Z,3.00
2022-08-17T09:00:07.954Z,3.00
2022-08-17T09:03:06.242Z,3.23
2022-08-17T09:05:41.950Z,2.87
2022-08-17T09:08:24.014Z,3.40
2022-08-17T09:11:26.101Z,3.20
2022-08-17T09:14:05.210Z,2.83
2022-08-17T09:17:13.992Z,3.33
2022-08-17T09:20:05.049Z,3.73
2022-08-17T09:22:44.748Z,3.37
2022-08-17T09:25:17.562Z,3.60
2022-08-17T09:28:04.640Z,4.13
2022-08-17T09:31:04.272Z,3.60
2022-08-17T09:33:34.661Z,3.73
2022-08-17T09:36:24.236Z,3.60
2022-08-17T09:39:07.728Z,3.73
2022-08-17T09:41:58.010Z,3.63
2022-08-17T09:44:40.974Z,3.63
2022-08-17T09:47:36.952Z,4.33
2022-08-17T09:50:11.596Z,4.10
2022-08-17T09:52:39.317Z,4.10
2022-08-17T09:55:08.498Z,4.30
2022-08-17T09:57:59.283Z,4.43
2022-08-17T10:00:29.853Z,4.30
2022-08-17T10:03:16.428Z,4.70
2022-08-17T10:06:06.525Z,4.90
2022-08-17T10:08:39.331Z,4.33
2022-08-17T10:11:52.780Z,4.37
2022-08-17T10:14:36.249Z,4.03
2022-08-17T10:17:12.878Z,4.83
2022-08-17T10:19:44.120Z,4.77
2022-08-17T10:23:01.228Z,4.47
2022-08-17T10:25:54.964Z,4.00
2022-08-17T10:28:30.213Z,4.70
2022-08-17T10:31:30.897Z,4.03
2022-08-17T10:34:13.999Z,4.23
2022-08-17T10:37:01.503Z,3.83
2022-08-17T10:39:51.921Z,4.20
2022-08-17T10:42:54.095Z,4.77
2022-08-17T10:45:34.320Z,4.20
2022-08-17T10:48:07.423Z,4.27
2022-08-17T10:51:00.273Z,3.90
2022-08-17T10:53:33.024Z,4.30
2022-08-17T10:56:48.238Z,4.43
2022-08-17T10:59:52.173Z,3.87
2022-08-17T11:02:50.288Z,3.97
2022-08-17T11:05:46.380Z,5.17
2022-08-17T11:08:34.144Z,4.80
2022-08-17T11:11:09.799Z,4.80
2022-08-17T11:13:47.712Z,5.13
2022-08-17T11:16:23.688Z,4.30
2022-08-17T11:19:10.928Z,4.37
2022-08-17T11:22:06.465Z,3.97
2022-08-17T11:24:40.112Z,4.93
2022-08-17T11:27:26.749Z,4.97
2022-08-17T11:30:14.226Z,4.33
2022-08-17T11:32:47.739Z,5.30
2022-08-17T11:35:21.796Z,5.00
2022-08-17T11:38:03.245Z,4.80
2022-08-17T11:40:38.599Z,5.33
2022-08-17T11:43:13.527Z,5.73
2022-08-17T11:46:06.399Z,6.23
2022-08-17T11:49:13.505Z,6.27
2022-08-17T11:52:02.422Z,5.47
2022-08-17T11:54:48.900Z,4.50
2022-08-17T12:00:58.500Z,4.37
2022-08-17T12:03:41.765Z,4.40
2022-08-17T12:06:30.466Z,5.10
2022-08-17T12:09:22.066Z,4.57
2022-08-17T12:12:14.441Z,4.57
2022-08-17T12:17:50.257Z,4.10
2022-08-17T12:21:01.456Z,4.63
2022-08-17T12:23:57.807Z,5.07
2022-08-17T12:26:49.819Z,5.27
2022-08-17T12:29:18.427Z,5.20
2022-08-17T12:32:05.798Z,5.53
2022-08-17T12:34:39.576Z,5.07
2022-08-17T12:37:34.989Z,5.10
